Time;durP1;ratioP1;P1;durP2;ratioP2;P2;SDS_P1;SDS_P2;PMS_P1;PMS_P2;Temp;Humidity;BMP_temperature;BMP_pressure;BME280_temperature;BME280_humidity;BME280_pressure;Samples;Min_cycle;Max_cycle;Signal;HPM_P1;HPM_P2
2023/10/25 00:02:01;;;;;;;19.25;4.37;;;;;;;15.78;100.00;97260.97;4485259;31;20894;-77
2023/10/25 00:04:28;;;;;;;21.92;3.28;;;;;;;15.75;100.00;97264.78;4485340;32;20096;-77
2023/10/25 00:06:56;;;;;;;20.58;4.05;;;;;;;15.84;100.00;97254.03;4485415;32;20100;-77
2023/10/25 00:09:23;;;;;;;17.12;3.70;;;;;;;15.90;100.00;97242.66;4485235;31;20104;-78
2023/10/25 00:11:51;;;;;;;15.50;3.58;;;;;;;15.91;100.00;97245.09;4485365;31;20122;-77
2023/10/25 00:14:20;;;;;;;20.35;3.97;;;;;;;15.85;100.00;97232.72;4485486;32;20113;-77
2023/10/25 00:16:47;;;;;;;19.87;3.95;;;;;;;15.84;100.00;97227.63;4476283;32;20084;-78
2023/10/25 00:19:15;;;;;;;24.67;4.78;;;;;;;15.83;100.00;97231.28;4469483;32;20556;-78
2023/10/25 00:21:42;;;;;;;13.43;2.78;;;;;;;15.83;100.00;97228.66;4469335;32;20541;-78
2023/10/25 00:24:09;;;;;;;16.65;4.03;;;;;;;15.85;100.00;97232.72;4469234;32;20115;-78
2023/10/25 00:26:36;;;;;;;19.50;3.87;;;;;;;15.89;100.00;97223.34;4469793;32;20100;-78
2023/10/25 00:29:04;;;;;;;22.15;3.58;;;;;;;15.94;100.00;97218.25;4482103;32;20100;-78
2023/10/25 00:31:31;;;;;;;14.30;3.10;;;;;;;15.86;100.00;97215.03;4485073;31;20100;-78
2023/10/25 00:33:58;;;;;;;19.70;3.25;;;;;;;15.96;100.00;97210.13;4484841;32;20165;-78
2023/10/25 00:36:27;;;;;;;18.80;3.78;;;;;;;15.95;100.00;97216.41;4485011;32;20089;-79
2023/10/25 00:38:54;;;;;;;18.58;3.28;;;;;;;15.92;100.00;97206.28;4485339;32;20164;-79
2023/10/25 00:41:23;;;;;;;14.87;3.35;;;;;;;16.02;100.00;97211.09;4485097;31;20122;-79
2023/10/25 00:43:50;;;;;;;16.12;3.22;;;;;;;15.95;100.00;97209.28;4484907;32;20137;-79
2023/10/25 00:46:22;;;;;;;22.73;3.08;;;;;;;16.03;100.00;97215.34;4485019;32;20434;-78
2023/10/25 00:48:52;;;;;;;18.55;3.70;;;;;;;15.99;100.00;97214.16;4483854;32;20402;-79
2023/10/25 00:51:22;;;;;;;19.92;3.15;;;;;;;16.03;100.00;97210.06;4485321;31;20106;-79
2023/10/25 00:53:50;;;;;;;18.55;3.72;;;;;;;16.03;100.00;97199.50;4484998;31;20092;-79
2023/10/25 00:56:20;;;;;;;12.90;3.83;;;;;;;16.04;100.00;97196.66;4483772;32;20149;-80
2023/10/25 00:58:49;;;;;;;17.23;3.67;;;;;;;16.00;100.00;97194.66;4484921;31;20472;-80
2023/10/25 01:01:18;;;;;;;27.17;4.82;;;;;;;15.95;100.00;97192.62;4484959;31;20770;-80
2023/10/25 01:03:46;;;;;;;16.00;3.45;;;;;;;16.01;100.00;97181.22;4484895;31;20118;-80
2023/10/25 01:06:14;;;;;;;15.38;3.65;;;;;;;15.93;100.00;97160.34;4485114;31;20110;-79
2023/10/25 01:08:41;;;;;;;15.48;4.20;;;;;;;15.88;100.00;97147.78;4483688;32;20108;-79
2023/10/25 01:11:09;;;;;;;19.83;3.40;;;;;;;15.92;100.00;97140.25;4483517;32;20109;-79
2023/10/25 01:13:36;;;;;;;17.73;3.90;;;;;;;15.99;100.00;97132.28;4483652;32;20528;-79
2023/10/25 01:16:04;;;;;;;21.33;3.90;;;;;;;16.10;100.00;97129.75;4480655;32;20108;-80
2023/10/25 01:18:33;;;;;;;23.80;4.30;;;;;;;16.05;100.00;97119.03;4468814;32;20533;-80
2023/10/25 01:21:00;;;;;;;21.05;4.07;;;;;;;15.84;100.00;97119.37;4469053;32;20158;-80
2023/10/25 01:23:27;;;;;;;21.75;5.12;;;;;;;15.95;100.00;97116.03;4469144;32;20541;-80
2023/10/25 01:25:55;;;;;;;19.75;3.95;;;;;;;15.94;100.00;97117.06;4468995;32;20092;-80
2023/10/25 01:28:23;;;;;;;20.02;5.32;;;;;;;15.92;100.00;97103.28;4477576;32;20463;-80
2023/10/25 01:31:05;;;;;;;23.02;4.80;;;;;;;15.94;100.00;97101.22;4484701;31;20139;-81
2023/10/25 01:33:34;;;;;;;17.55;4.62;;;;;;;15.92;100.00;97103.28;4484749;31;20088;-80
2023/10/25 01:36:01;;;;;;;18.98;4.35;;;;;;;15.91;100.00;97102.47;4484566;32;20100;-81
2023/10/25 01:38:29;;;;;;;19.50;4.85;;;;;;;15.89;100.00;97107.13;4484707;32;20466;-80
2023/10/25 01:40:56;;;;;;;18.42;4.62;;;;;;;15.85;100.00;97113.06;4484806;31;20163;-80
2023/10/25 01:43:25;;;;;;;14.32;4.40;;;;;;;15.87;100.00;97109.19;4484677;32;20097;-80
2023/10/25 01:45:53;;;;;;;17.50;4.20;;;;;;;15.91;100.00;97094.53;4484690;32;20113;-81
2023/10/25 01:48:20;;;;;;;18.52;4.40;;;;;;;15.92;100.00;97100.62;4484553;32;20100;-81
2023/10/25 01:50:47;;;;;;;16.77;4.35;;;;;;;15.93;100.00;97102.25;4484674;32;20135;-81
2023/10/25 01:53:14;;;;;;;13.73;3.95;;;;;;;15.96;100.00;97105.28;4484545;32;20092;-81
2023/10/25 01:55:43;;;;;;;18.67;4.05;;;;;;;16.01;100.00;97093.28;4484716;31;20088;-81
2023/10/25 01:58:11;;;;;;;18.80;4.07;;;;;;;16.00;100.00;97089.78;4484445;31;20088;-81
2023/10/25 02:00:39;;;;;;;13.13;3.37;;;;;;;15.96;100.00;97083.34;4484657;32;20169;-82
2023/10/25 02:03:07;;;;;;;12.35;3.60;;;;;;;15.92;100.00;97082.13;4484404;31;20092;-82
2023/10/25 02:05:34;;;;;;;15.75;3.20;;;;;;;15.93;100.00;97081.94;4484476;32;20092;-82
2023/10/25 02:08:01;;;;;;;18.50;4.15;;;;;;;15.96;100.00;97078.06;4484547;32;20104;-82
2023/10/25 02:10:29;;;;;;;16.52;4.85;;;;;;;15.91;100.00;97085.78;4484364;32;20096;-82
2023/10/25 02:12:56;;;;;;;16.15;3.37;;;;;;;15.94;100.00;97090.66;4484735;32;20114;-82
2023/10/25 02:15:23;;;;;;;19.90;4.18;;;;;;;15.90;100.00;97079.72;4484296;32;20528;-82
2023/10/25 02:17:51;;;;;;;19.75;4.85;;;;;;;15.84;100.00;97088.50;4468674;32;20127;-82
2023/10/25 02:20:18;;;;;;;27.48;4.80;;;;;;;15.72;100.00;97093.59;4468574;32;20093;-82
2023/10/25 02:22:45;;;;;;;21.67;5.00;;;;;;;15.61;100.00;97078.44;4468720;32;20118;-82
2023/10/25 02:25:13;;;;;;;18.23;4.80;;;;;;;15.60;100.00;97074.97;4468482;32;20465;-82
2023/10/25 02:27:40;;;;;;;33.10;5.68;;;;;;;15.74;100.00;97074.91;4472214;32;20433;-82
2023/10/25 02:30:09;;;;;;;22.67;4.00;;;;;;;15.68;100.00;97066.00;4484701;32;20096;-82
2023/10/25 02:32:36;;;;;;;21.58;5.85;;;;;;;15.80;100.00;97084.66;4486010;31;20100;-82
2023/10/25 02:35:04;;;;;;;15.50;4.50;;;;;;;15.68;100.00;97070.47;4485971;32;20081;-82
2023/10/25 02:37:32;;;;;;;13.18;3.42;;;;;;;15.72;100.00;97067.19;4485975;31;20127;-82
2023/10/25 02:39:59;;;;;;;5.93;3.10;;;;;;;15.76;100.00;97057.84;4486037;32;20126;-82
2023/10/25 02:42:26;;;;;;;9.25;3.15;;;;;;;15.85;100.00;97058.44;4486236;32;20147;-82
2023/10/25 02:44:54;;;;;;;7.55;3.30;;;;;;;15.80;100.00;97063.53;4485702;32;20141;-83
2023/10/25 02:47:21;;;;;;;4.53;2.72;;;;;;;15.74;100.00;97065.13;4485905;31;20429;-82
2023/10/25 02:49:49;;;;;;;3.08;1.92;;;;;;;15.72;100.00;97046.06;4486023;31;20118;-82
2023/10/25 02:52:16;;;;;;;6.07;2.40;;;;;;;15.73;100.00;97036.31;4485904;32;20114;-82
2023/10/25 02:54:43;;;;;;;5.05;1.55;;;;;;;15.71;100.00;97031.25;4486162;32;20092;-82
2023/10/25 02:57:11;;;;;;;5.87;1.70;;;;;;;15.57;100.00;97037.63;4485902;32;20100;-82
2023/10/25 02:59:38;;;;;;;6.65;1.67;;;;;;;15.57;100.00;97038.44;4485843;32;20092;-82
2023/10/25 03:02:06;;;;;;;3.20;1.60;;;;;;;15.63;100.00;97030.72;4486005;32;20092;-83
2023/10/25 03:04:33;;;;;;;18.40;1.70;;;;;;;15.74;100.00;97030.81;4485840;32;20084;-83
2023/10/25 03:07:01;;;;;;;4.20;1.58;;;;;;;15.74;100.00;97041.38;4485954;31;20432;-83
2023/10/25 03:09:29;;;;;;;3.47;1.80;;;;;;;15.77;100.00;97053.34;4485829;32;20088;-83
2023/10/25 03:11:58;;;;;;;5.03;1.83;;;;;;;15.47;100.00;97069.75;4485587;32;20096;-82
2023/10/25 03:14:25;;;;;;;5.95;2.92;;;;;;;14.98;100.00;97068.53;4485702;31;20115;-81
2023/10/25 03:16:53;;;;;;;5.15;2.50;;;;;;;14.45;100.00;97074.66;4476065;32;20088;-80
2023/10/25 03:19:20;;;;;;;3.17;2.10;;;;;;;14.33;100.00;97085.78;4470058;32;20162;-80
2023/10/25 03:21:49;;;;;;;3.60;2.40;;;;;;;14.09;100.00;97105.63;4469943;32;20143;-80
2023/10/25 03:24:16;;;;;;;6.30;2.85;;;;;;;13.85;100.00;97101.75;4469986;32;20111;-83
2023/10/25 03:26:43;;;;;;;8.07;2.70;;;;;;;13.82;100.00;97099.50;4469990;32;20167;-84
2023/10/25 03:29:11;;;;;;;6.25;3.15;;;;;;;13.76;100.00;97093.25;4483621;32;20507;-83
2023/10/25 03:31:39;;;;;;;5.40;3.53;;;;;;;13.62;100.00;97094.19;4485680;31;20115;-78
2023/10/25 03:34:08;;;;;;;6.50;4.18;;;;;;;13.42;100.00;97083.63;4485497;32;20091;-78
2023/10/25 03:36:36;;;;;;;12.00;3.92;;;;;;;13.49;100.00;97082.63;4485424;32;20114;-80
2023/10/25 03:39:04;;;;;;;7.07;4.35;;;;;;;13.46;100.00;97080.38;4485669;32;20084;-80
2023/10/25 03:41:32;;;;;;;7.93;4.50;;;;;;;13.34;100.00;97092.50;4485176;31;20156;-81
2023/10/25 03:44:00;;;;;;;6.93;4.72;;;;;;;13.32;100.00;97100.53;4485372;31;20103;-81
2023/10/25 03:46:27;;;;;;;7.93;4.90;;;;;;;13.28;100.00;97099.31;4485451;32;20117;-82
2023/10/25 03:48:55;;;;;;;9.13;5.25;;;;;;;13.29;100.00;97105.37;4485369;31;20160;-81
2023/10/25 03:51:23;;;;;;;8.57;5.25;;;;;;;13.21;100.00;97101.09;4485474;32;20167;-81
2023/10/25 03:53:51;;;;;;;7.03;4.40;;;;;;;13.28;100.00;97095.88;4485377;32;20096;-81
2023/10/25 03:56:18;;;;;;;7.65;4.70;;;;;;;13.26;100.00;97116.28;4485464;31;20573;-81
2023/10/25 03:58:45;;;;;;;7.50;4.97;;;;;;;13.34;100.00;97118.78;4485474;31;20093;-81
2023/10/25 04:01:13;;;;;;;9.77;5.57;;;;;;;13.32;100.00;97126.84;4485275;32;20111;-81
2023/10/25 04:03:41;;;;;;;8.45;5.47;;;;;;;13.30;100.00;97131.47;4484048;32;20100;-81
2023/10/25 04:06:09;;;;;;;10.88;5.40;;;;;;;13.34;100.00;97133.75;4483421;32;20153;-81
2023/10/25 04:08:36;;;;;;;10.40;6.03;;;;;;;13.39;100.00;97139.25;4485312;31;20118;-81
2023/10/25 04:11:04;;;;;;;11.75;6.15;;;;;;;13.37;100.00;97138.59;4485200;31;20092;-81
2023/10/25 04:13:32;;;;;;;11.88;5.47;;;;;;;13.41;100.00;97142.47;4485147;32;20088;-81
2023/10/25 04:16:02;;;;;;;14.45;6.50;;;;;;;13.26;100.00;97146.03;4481283;31;20127;-80
2023/10/25 04:18:31;;;;;;;13.25;7.15;;;;;;;13.19;100.00;97152.25;4469484;32;20127;-80
2023/10/25 04:21:00;;;;;;;13.82;6.78;;;;;;;13.18;100.00;97163.78;4469505;32;20092;-79
2023/10/25 04:23:30;;;;;;;14.87;6.87;;;;;;;13.20;100.00;97169.66;4469447;32;20100;-80
2023/10/25 04:26:05;;;;;;;12.48;7.03;;;;;;;13.07;100.00;97160.69;4469250;32;20092;-80
2023/10/25 04:28:35;;;;;;;11.02;6.05;;;;;;;13.10;100.00;97176.06;4479130;32;20139;-79
2023/10/25 04:31:03;;;;;;;10.15;6.20;;;;;;;13.12;100.00;97181.94;4485206;31;20489;-80
2023/10/25 04:33:32;;;;;;;11.30;6.28;;;;;;;13.01;100.00;97179.03;4484889;31;20092;-80
2023/10/25 04:36:00;;;;;;;12.52;6.18;;;;;;;13.02;100.00;97183.28;4484821;32;20096;-79
2023/10/25 04:38:29;;;;;;;14.60;5.80;;;;;;;13.11;100.00;97184.75;4484863;32;20431;-79
2023/10/25 04:40:57;;;;;;;11.25;5.65;;;;;;;13.00;100.00;97178.22;4484945;31;20096;-79
2023/10/25 04:43:24;;;;;;;8.48;5.20;;;;;;;13.05;100.00;97190.78;4484902;31;20541;-79
2023/10/25 04:45:55;;;;;;;9.55;5.55;;;;;;;13.04;100.00;97186.56;4484411;31;20084;-78
2023/10/25 04:48:22;;;;;;;11.00;4.97;;;;;;;13.09;100.00;97190.22;4484611;32;20080;-79
2023/10/25 04:50:52;;;;;;;8.95;5.28;;;;;;;13.07;100.00;97194.06;4484149;31;20180;-78
2023/10/25 04:53:20;;;;;;;11.18;4.78;;;;;;;13.06;100.00;97201.09;4483837;32;20114;-78
2023/10/25 04:55:48;;;;;;;9.10;5.05;;;;;;;13.00;100.00;97196.63;4484577;31;20091;-78
2023/10/25 04:58:17;;;;;;;8.40;5.07;;;;;;;12.92;100.00;97199.41;4484964;32;20145;-79
2023/10/25 05:00:45;;;;;;;7.28;4.78;;;;;;;13.00;100.00;97208.97;4483304;31;20453;-79
2023/10/25 05:03:12;;;;;;;8.00;5.30;;;;;;;12.94;100.00;97203.47;4484105;31;20133;-78
2023/10/25 05:05:40;;;;;;;8.80;4.55;;;;;;;12.91;100.00;97214.38;4484495;32;20088;-78
2023/10/25 05:08:10;;;;;;;9.00;5.43;;;;;;;12.88;100.00;97219.97;4481130;32;20454;-78
2023/10/25 05:10:39;;;;;;;12.32;5.07;;;;;;;12.89;100.00;97212.94;4477113;32;20438;-78
2023/10/25 05:13:06;;;;;;;10.27;5.60;;;;;;;12.84;100.00;97218.75;4482672;31;20103;-78
2023/10/25 05:15:36;;;;;;;10.90;6.05;;;;;;;12.86;100.00;97232.50;4482184;31;20127;-78
2023/10/25 05:18:05;;;;;;;9.88;5.95;;;;;;;12.85;100.00;97224.81;4469170;32;20093;-77
2023/10/25 05:20:34;;;;;;;8.32;5.62;;;;;;;12.92;100.00;97230.94;4478728;32;20096;-78
2023/10/25 05:23:03;;;;;;;9.88;6.40;;;;;;;12.80;100.00;97235.88;4480565;31;20104;-78
2023/10/25 05:25:31;;;;;;;12.13;7.12;;;;;;;12.72;100.00;97236.03;4483723;31;20119;-78
2023/10/25 05:28:01;;;;;;;14.75;8.40;;;;;;;12.69;100.00;97234.59;4482382;31;20097;-78
2023/10/25 05:30:31;;;;;;;13.07;8.85;;;;;;;12.69;100.00;97246.91;4482704;32;20171;-78
2023/10/25 05:33:03;;;;;;;14.40;8.77;;;;;;;12.64;100.00;97233.50;4481336;32;20114;-78
2023/10/25 05:35:31;;;;;;;18.87;11.02;;;;;;;12.62;100.00;97249.47;4480041;31;78113;-78
2023/10/25 05:37:59;;;;;;;16.02;9.90;;;;;;;12.66;100.00;97250.72;4474509;32;20230;-78
2023/10/25 05:40:27;;;;;;;15.43;10.32;;;;;;;12.64;100.00;97249.28;4478385;32;20147;-78
2023/10/25 05:42:57;;;;;;;17.33;11.07;;;;;;;12.64;100.00;97265.03;4475610;31;20438;-78
2023/10/25 05:45:25;;;;;;;14.00;10.20;;;;;;;12.65;100.00;97269.31;4467483;32;20552;-78
2023/10/25 05:47:57;;;;;;;17.12;11.12;;;;;;;12.63;100.00;97268.66;4475323;32;20152;-77
2023/10/25 05:50:25;;;;;;;15.95;10.93;;;;;;;12.64;100.00;97272.94;4475266;32;20449;-77
2023/10/25 05:52:53;;;;;;;16.37;11.27;;;;;;;12.70;100.00;97280.06;4484225;32;20394;-77
2023/10/25 05:55:20;;;;;;;18.42;11.20;;;;;;;12.54;100.00;97286.38;4483511;32;20096;-79
2023/10/25 05:57:48;;;;;;;15.50;10.57;;;;;;;12.70;100.00;97301.06;4476126;31;20538;-79
2023/10/25 06:00:16;;;;;;;16.87;11.52;;;;;;;12.65;100.00;97308.72;4466953;32;20100;-79
2023/10/25 06:02:52;;;;;;;17.75;11.68;;;;;;;12.65;100.00;97313.97;4465763;32;20532;-78
2023/10/25 06:05:20;;;;;;;17.02;10.35;;;;;;;12.67;100.00;97325.09;4469816;32;20143;-79
2023/10/25 06:07:47;;;;;;;16.25;9.68;;;;;;;12.71;100.00;97334.25;4470373;32;20112;-78
2023/10/25 06:10:17;;;;;;;15.85;9.77;;;;;;;12.70;100.00;97343.13;4468630;32;20093;-80
2023/10/25 06:12:45;;;;;;;13.32;9.25;;;;;;;12.66;100.00;97352.38;4466890;32;20112;-78
2023/10/25 06:15:15;;;;;;;13.65;9.80;;;;;;;12.66;100.00;97363.69;4469240;32;20097;-79
2023/10/25 06:17:42;;;;;;;12.77;9.57;;;;;;;12.71;100.00;97371.03;4469087;32;20100;-78
2023/10/25 06:20:11;;;;;;;14.10;9.30;;;;;;;12.71;100.00;97376.28;4466620;32;20097;-80
2023/10/25 06:22:39;;;;;;;14.70;8.90;;;;;;;12.79;100.00;97381.41;4472060;32;20201;-77
2023/10/25 06:25:09;;;;;;;11.15;8.45;;;;;;;12.78;100.00;97377.19;4472195;32;20108;-79
2023/10/25 06:27:41;;;;;;;13.25;8.20;;;;;;;12.72;100.00;97391.88;4467848;32;20101;-80
2023/10/25 06:30:11;;;;;;;12.00;8.52;;;;;;;12.84;100.00;97388.75;4462616;32;20467;-78
2023/10/25 06:32:41;;;;;;;11.93;7.85;;;;;;;12.86;100.00;97395.44;4465622;32;20088;-79
2023/10/25 06:35:09;;;;;;;11.60;7.60;;;;;;;12.82;100.00;97399.44;4469608;32;20101;-78
2023/10/25 06:37:39;;;;;;;12.05;6.97;;;;;;;12.68;100.00;97405.56;4468238;32;20115;-77
2023/10/25 06:40:08;;;;;;;10.00;6.70;;;;;;;12.75;100.00;97411.72;4468851;31;20163;-77
2023/10/25 06:42:37;;;;;;;10.95;6.57;;;;;;;12.76;100.00;97408.06;4468090;32;20104;-79
2023/10/25 06:45:06;;;;;;;11.63;7.15;;;;;;;12.82;100.00;97398.62;4466369;32;20096;-80
2023/10/25 06:47:33;;;;;;;9.70;6.55;;;;;;;12.98;100.00;97392.34;4469865;32;20172;-77
2023/10/25 06:50:01;;;;;;;8.63;5.93;;;;;;;12.97;100.00;97386.25;4468498;32;20166;-77
2023/10/25 06:52:29;;;;;;;10.60;6.47;;;;;;;12.99;100.00;97383.44;4465729;32;20080;-77
2023/10/25 06:55:10;;;;;;;8.93;5.90;;;;;;;12.99;100.00;97384.28;4467325;32;20096;-78
2023/10/25 06:57:39;;;;;;;8.43;6.22;;;;;;;12.95;100.00;97368.03;4467100;32;20088;-79
2023/10/25 07:00:09;;;;;;;7.32;4.97;;;;;;;13.20;100.00;97375.59;4470543;32;20092;-81
2023/10/25 07:02:56;;;;;;;8.98;5.22;;;;;;;13.28;100.00;97383.34;4470268;32;20088;-78
2023/10/25 07:05:24;;;;;;;11.70;5.40;;;;;;;13.22;100.00;97397.25;4469890;31;20101;-78
2023/10/25 07:07:52;;;;;;;9.20;5.47;;;;;;;13.29;100.00;97394.66;4478140;32;20150;-80
2023/10/25 07:10:22;;;;;;;8.43;5.32;;;;;;;13.47;100.00;97405.59;4468338;32;20121;-79
2023/10/25 07:12:51;;;;;;;9.43;5.32;;;;;;;13.51;100.00;97407.84;4468690;32;20452;-77
2023/10/25 07:15:19;;;;;;;7.05;5.22;;;;;;;13.63;100.00;97395.81;4469753;31;20096;-78
2023/10/25 07:17:49;;;;;;;7.03;5.05;;;;;;;13.68;100.00;97380.25;4469342;32;20092;-77
2023/10/25 07:20:17;;;;;;;7.07;4.90;;;;;;;13.67;100.00;97381.25;4472246;32;20488;-79
2023/10/25 07:22:45;;;;;;;7.25;4.60;;;;;;;13.79;100.00;97387.63;4470359;32;20126;-78
2023/10/25 07:25:15;;;;;;;8.40;5.35;;;;;;;13.85;100.00;97383.41;4469631;32;20155;-77
2023/10/25 07:27:43;;;;;;;6.62;4.22;;;;;;;13.85;100.00;97378.13;4474626;32;20194;-76
2023/10/25 07:30:11;;;;;;;6.50;4.45;;;;;;;13.94;100.00;97382.25;4469009;32;20134;-77
2023/10/25 07:32:39;;;;;;;4.30;3.75;;;;;;;13.84;100.00;97374.69;4470509;32;20092;-76
2023/10/25 07:35:08;;;;;;;5.75;3.95;;;;;;;13.94;100.00;97381.44;4472135;32;20096;-76
2023/10/25 07:37:35;;;;;;;7.07;3.90;;;;;;;14.01;100.00;97393.63;4470964;32;20115;-76
2023/10/25 07:40:05;;;;;;;5.45;3.05;;;;;;;13.90;100.00;97396.81;4468807;32;21877;-73
2023/10/25 07:42:34;;;;;;;6.20;3.30;;;;;;;14.10;100.00;97417.19;4471497;32;20154;-74
2023/10/25 07:45:01;;;;;;;5.20;3.20;;;;;;;14.16;100.00;97426.97;4469923;32;20161;-73
2023/10/25 07:47:30;;;;;;;6.12;3.22;;;;;;;14.19;100.00;97416.84;4473272;32;20518;-73
2023/10/25 07:49:57;;;;;;;4.78;3.30;;;;;;;14.20;100.00;97428.19;4473741;32;20108;-73
2023/10/25 07:52:39;;;;;;;4.45;3.25;;;;;;;14.29;100.00;97421.78;4473615;32;20096;-73
2023/10/25 07:55:07;;;;;;;5.05;3.33;;;;;;;14.31;100.00;97422.38;4469750;32;20537;-76
2023/10/25 07:57:54;;;;;;;3.12;2.65;;;;;;;14.55;100.00;97444.81;4472557;32;20093;-76
2023/10/25 08:00:25;;;;;;;4.12;2.92;;;;;;;14.50;100.00;97447.22;4472801;32;20100;-75
2023/10/25 08:02:52;;;;;;;4.12;2.78;;;;;;;14.47;100.00;97454.69;4469208;32;20115;-76
2023/10/25 08:05:19;;;;;;;7.20;2.45;;;;;;;14.55;100.00;97465.91;4466097;32;20168;-76
2023/10/25 08:07:47;;;;;;;4.65;3.47;;;;;;;14.75;100.00;97472.28;4471430;32;20096;-76
2023/10/25 08:10:16;;;;;;;3.80;2.62;;;;;;;14.92;100.00;97476.22;4471916;32;20176;-78
2023/10/25 08:12:44;;;;;;;3.20;2.80;;;;;;;14.88;100.00;97472.34;4469681;32;20635;-78
2023/10/25 08:15:11;;;;;;;4.68;2.95;;;;;;;14.95;100.00;97472.41;4467260;32;20104;-77
2023/10/25 08:17:39;;;;;;;5.28;3.30;;;;;;;14.99;100.00;97465.69;4470575;32;20105;-77
2023/10/25 08:20:06;;;;;;;5.70;2.90;;;;;;;14.96;100.00;97469.56;4474148;32;20093;-77
2023/10/25 08:22:35;;;;;;;3.47;2.92;;;;;;;15.05;100.00;97464.94;4473059;32;20617;-77
2023/10/25 08:25:08;;;;;;;6.10;2.80;;;;;;;15.06;100.00;97469.19;4473380;32;20092;-78
2023/10/25 08:27:37;;;;;;;3.80;3.22;;;;;;;14.99;100.00;97473.59;4470962;32;20130;-76
2023/10/25 08:30:08;;;;;;;4.68;3.25;;;;;;;15.03;100.00;97486.22;4470909;32;20120;-76
2023/10/25 08:32:35;;;;;;;4.50;2.85;;;;;;;14.93;100.00;97485.78;4469386;31;20157;-79
2023/10/25 08:35:03;;;;;;;4.07;3.12;;;;;;;15.12;100.00;97500.03;4474947;31;20167;-77
2023/10/25 08:37:30;;;;;;;2.75;2.33;;;;;;;14.80;100.00;97507.59;4470351;32;20135;-79
2023/10/25 08:39:58;;;;;;;3.40;2.50;;;;;;;14.75;100.00;97519.75;4467541;32;20118;-80
2023/10/25 08:42:25;;;;;;;3.80;2.83;;;;;;;14.89;100.00;97551.25;4472751;31;20158;-80
2023/10/25 08:44:53;;;;;;;3.80;2.55;;;;;;;15.12;100.00;97565.19;4472011;32;20113;-80
2023/10/25 08:47:22;;;;;;;2.47;2.17;;;;;;;15.30;100.00;97560.19;4471745;32;20130;-80
2023/10/25 08:49:50;;;;;;;3.30;2.40;;;;;;;15.15;100.00;97556.88;4469313;32;20088;-80
2023/10/25 08:52:24;;;;;;;4.80;2.95;;;;;;;15.22;100.00;97561.16;4467874;32;20125;-80
2023/10/25 08:54:51;;;;;;;3.42;2.25;;;;;;;15.05;100.00;97568.59;4467703;32;20133;-79
2023/10/25 08:57:20;;;;;;;6.43;2.70;;;;;;;15.22;100.00;97561.16;4462652;32;20088;-83
2023/10/25 08:59:48;;;;;;;5.65;2.17;;;;;;;15.20;100.00;97560.56;4470621;32;20109;-79
2023/10/25 09:02:16;;;;;;;3.53;2.37;;;;;;;15.32;100.00;97558.16;4470274;32;20108;-80
2023/10/25 09:04:55;;;;;;;3.10;2.15;;;;;;;15.48;100.00;97574.66;4472380;32;20418;-80
2023/10/25 09:07:27;;;;;;;3.85;2.62;;;;;;;15.46;100.00;97584.59;4466232;32;20109;-79
2023/10/25 09:09:56;;;;;;;2.70;2.10;;;;;;;15.69;100.00;97589.56;4466118;32;20107;-78
2023/10/25 09:12:24;;;;;;;2.83;2.33;;;;;;;15.69;100.00;97600.13;4470572;32;20461;-82
2023/10/25 09:14:52;;;;;;;3.62;2.40;;;;;;;15.57;100.00;97605.16;4469628;32;20138;-85
2023/10/25 09:17:20;;;;;;;4.75;3.15;;;;;;;15.62;100.00;97600.06;4467398;32;20134;-84
2023/10/25 09:19:49;;;;;;;7.30;2.97;;;;;;;15.76;100.00;97612.31;4467830;32;20481;-82
2023/10/25 09:22:25;;;;;;;4.93;2.62;;;;;;;15.73;100.00;97606.59;4470930;32;20118;-81
2023/10/25 09:24:58;;;;;;;4.00;3.17;;;;;;;15.64;100.00;97611.28;4473672;31;20108;-83
2023/10/25 09:27:27;;;;;;;4.28;3.10;;;;;;;15.54;100.00;97616.91;4468212;32;20133;-82
2023/10/25 09:30:11;;;;;;;4.00;3.20;;;;;;;15.82;100.00;97616.03;4465459;32;20135;-79
2023/10/25 09:32:57;;;;;;;5.15;3.67;;;;;;;16.00;100.00;97636.56;4470926;32;20149;-78
2023/10/25 09:35:24;;;;;;;3.60;3.08;;;;;;;16.04;100.00;97637.00;4471639;32;20113;-78
2023/10/25 09:37:51;;;;;;;7.62;3.08;;;;;;;16.17;100.00;97623.00;4468912;32;20120;-79
2023/10/25 09:40:19;;;;;;;3.60;3.17;;;;;;;16.24;100.00;97629.09;4464653;32;20104;-79
2023/10/25 09:42:52;;;;;;;4.57;3.25;;;;;;;16.05;100.00;97626.25;4473030;32;20072;-77
2023/10/25 09:45:23;;;;;;;6.05;4.57;;;;;;;16.21;100.00;97621.59;4469181;32;20124;-77
2023/10/25 09:47:55;;;;;;;7.03;3.37;;;;;;;16.07;100.00;97629.47;4463416;32;20158;-79
2023/10/25 09:50:36;;;;;;;4.90;3.23;;;;;;;16.28;100.00;97627.69;4467581;32;20152;-77
2023/10/25 09:53:11;;;;;;;4.70;2.85;;;;;;;16.20;100.00;97625.22;4469906;32;20092;-77
2023/10/25 09:55:45;;;;;;;4.65;2.83;;;;;;;16.02;100.00;97625.81;4473088;32;20115;-78
2023/10/25 09:58:13;;;;;;;3.72;2.70;;;;;;;16.05;100.00;97617.47;4464822;32;20092;-77
2023/10/25 10:00:41;;;;;;;3.95;2.60;;;;;;;16.11;100.00;97625.44;4470301;31;20450;-77
2023/10/25 10:03:20;;;;;;;4.40;2.97;;;;;;;16.23;100.00;97614.25;4471595;32;20092;-78
2023/10/25 10:06:14;;;;;;;3.85;2.97;;;;;;;16.23;100.00;97611.62;4466998;32;20123;-77
2023/10/25 10:08:52;;;;;;;2.80;2.30;;;;;;;16.14;100.00;97619.75;4469064;32;20135;-79
2023/10/25 10:11:24;;;;;;;7.15;2.75;;;;;;;16.20;100.00;97620.78;4466035;32;20788;-79
2023/10/25 10:14:29;;;;;;;2.87;2.40;;;;;;;16.23;100.00;97617.72;4467890;32;20093;-77
2023/10/25 10:17:04;;;;;;;4.35;2.22;;;;;;;16.63;100.00;97632.78;4473284;32;20112;-76
2023/10/25 10:19:37;;;;;;;2.67;2.37;;;;;;;16.57;100.00;97629.13;4476934;32;20548;-75
2023/10/25 10:22:06;;;;;;;2.30;1.95;;;;;;;16.77;100.00;97644.97;4479413;31;20114;-77
2023/10/25 10:24:44;;;;;;;2.60;2.40;;;;;;;16.76;100.00;97627.50;4478949;32;20161;-79
2023/10/25 10:27:41;;;;;;;2.53;2.00;;;;;;;16.59;100.00;97620.97;4477168;32;20563;-79
2023/10/25 10:30:41;;;;;;;3.03;2.00;;;;;;;16.60;100.00;97628.72;4389748;32;20629;-76
2023/10/25 10:33:11;;;;;;;2.80;2.40;;;;;;;16.49;100.00;97624.84;4394829;32;20157;-77
2023/10/25 10:35:48;;;;;;;5.30;2.42;;;;;;;16.36;100.00;97622.19;4398837;32;20126;-76
2023/10/25 10:38:16;;;;;;;2.72;2.00;;;;;;;16.50;100.00;97620.38;4400082;32;20118;-78
2023/10/25 10:40:49;;;;;;;3.55;2.10;;;;;;;16.40;100.00;97617.34;4407904;32;20141;-77
2023/10/25 10:43:17;;;;;;;2.62;2.17;;;;;;;16.45;100.00;97620.97;4403599;32;20094;-78
2023/10/25 10:45:51;;;;;;;2.90;2.00;;;;;;;16.48;100.00;97623.22;4399264;32;20164;-78
2023/10/25 10:48:26;;;;;;;3.47;2.05;;;;;;;16.95;100.00;97617.91;4391174;32;20128;-79
2023/10/25 10:50:54;;;;;;;2.87;1.80;;;;;;;17.30;100.00;97617.63;4402521;32;20610;-78
2023/10/25 10:53:22;;;;;;;2.45;1.87;;;;;;;17.06;100.00;97618.31;4404494;32;20403;-79
2023/10/25 10:55:49;;;;;;;1.70;1.50;;;;;;;17.06;100.00;97615.66;4398849;32;20098;-78
2023/10/25 10:58:17;;;;;;;4.75;1.75;;;;;;;17.41;100.00;97610.91;4404673;32;20755;-78
2023/10/25 11:00:45;;;;;;;2.03;1.70;;;;;;;17.53;100.00;97598.63;4400245;32;20989;-78
2023/10/25 11:03:14;;;;;;;3.75;1.40;;;;;;;17.77;100.00;97606.84;4400496;32;20123;-78
2023/10/25 11:05:42;;;;;;;1.98;1.70;;;;;;;17.68;100.00;97597.53;4400718;32;20518;-79
2023/10/25 11:08:11;;;;;;;2.30;1.67;;;;;;;17.55;100.00;97604.50;4456282;32;20179;-79
2023/10/25 11:10:39;;;;;;;3.78;1.70;;;;;;;17.61;100.00;97608.16;4479007;32;20829;-77
2023/10/25 11:13:10;;;;;;;2.25;1.70;;;;;;;17.91;100.00;97607.59;4474268;32;20110;-79
2023/10/25 11:15:38;;;;;;;2.55;2.17;;;;;;;18.11;100.00;97604.84;4481631;32;20119;-78
2023/10/25 11:18:09;;;;;;;2.25;1.67;;;;;;;18.12;100.00;97601.16;4478838;32;20165;-78
2023/10/25 11:20:39;;;;;;;2.90;1.35;;;;;;;18.11;99.87;97590.78;4478874;31;20687;-78
2023/10/25 11:23:08;;;;;;;2.03;1.50;;;;;;;18.28;96.66;97589.22;4477974;31;20115;-78
2023/10/25 11:25:37;;;;;;;3.72;1.50;;;;;;;18.55;98.30;97584.53;4471212;32;20116;-80
2023/10/25 11:28:05;;;;;;;4.18;1.40;;;;;;;18.89;95.61;97586.88;4474101;32;20192;-78
2023/10/25 11:30:34;;;;;;;1.60;1.40;;;;;;;18.87;93.99;97581.00;4473215;32;20122;-78
2023/10/25 11:33:04;;;;;;;1.65;1.35;;;;;;;18.71;94.56;97587.63;4472890;31;20211;-80